Chubu Centrair International Airport
RJGG : now visible

Airfield :











YOU CAN JOIN US ON...

 
LOGIN :

Register | Disclaimer

   EN    FR    IT 

 









Legend :    VFR   Marginal VFR   IFR   Intensive IFR   Very Intensive IFR
Visi :
Ceiling :
>= 8 km
>= 3000ft
5 to 8 km
1000 to 3000 ft
1500m to 5 km
500 to 1000 ft
800 to 1500m
200 to 500 ft
< 800m
< 200 ft
Symbols :   Thunderstorms  Fog  Heavy snow  Heavy precipitations  Wind > 20 kt







- Airport Elevation : 15 ft
- IATA code : NGO


RJGG - Chubu Centrair International

CURRENT METAR :
  • 190000Z 03006KT 7000 -RA FEW030 BKN060 07/04 Q1025 TEMPO 4000 -RA BR

EXPIRED METARs :
  • 182330Z 03006KT 7000 -RA FEW030 BKN060 07/03 Q1025 NOSIG
  • 182300Z 02006KT 9999 -RA FEW030 BKN060 08/03 Q1025 NOSIG
  • 182230Z 36006KT 9999 -RA FEW030 SCT050 OVC070 07/03 Q1026 NOSIG
  • 182200Z 35006KT 9999 -RA FEW030 OVC070 07/04 Q1026 NOSIG
  • 182130Z 36007KT 9999 -RA FEW030 BKN070 OVC100 07/03 Q1025 NOSIG

TAF TAF RJGG
Valid from the 19 at 00:00 until the 20 at 06:00 UTC


182313Z 1900/2006 02008KT 8000 -RA FEW008 BKN012
BECMG 1903/1905 4000 -RA BR
TEMPO 1905/1912 3000 RA BR FEW005 BKN008
BECMG 1912/1915 9999 NSW
BECMG 1921/2000 32015KT
BECMG 2003/2006 32028KT
RJJJ FIR / Asia



MET'MAP, your aeronautical weather chart ! - Copyright ORBIFLY December 2007 - Disclaimer

ORBIFLY MET'MAP TEAM :

Programming & Development : Alexandra Zaïnal
Concept & Development : Baudouin d'Aumeries
Co-Development & Prog : Marc-Olivier Méhu
Technical & hardware support : Manuel Goepfert

Contact : metmap@orbifly.com




SOURCES & CREDITS :

   NOAA       Earth
Advisory